Alexandria, Ohio
Current Conditions -  °F | °C
As of 9:54 PM on Monday 26 Jan 2015 (Local Time) from KVTA Reporting Station
Overcast Overcast  
Wind Chill: -11°   Ceiling: 1800
Heat Index: -11°   Visibility: 10mi
Dew Point: -13°   Wind: 3mph
Humidity: 84%   Direction: 290°WNW
Pressure: 29.92"   Gusts: NA
Location:  40.09°N, 82.61°W
Report Text: KVTA 270254Z AUTO 29003KT 10SM OVC018 M11/M13 A2992 RMK AO2 SLP146 T11061128 51004
Loading
Personal Weather Stations






























Interactive Weather Map New forecast layout! Learn more

10-Day Weather Forecast

Advertisements
Track Severe Weather on mobile